createdAt,value
2022-12-07T00:01:24.233Z,7.08
2022-12-07T00:03:54.001Z,6.99
2022-12-07T00:06:21.751Z,7.04
2022-12-07T00:08:49.579Z,7.11
2022-12-07T00:11:21.723Z,7.09
2022-12-07T00:13:56.579Z,6.92
2022-12-07T00:16:25.953Z,6.91
2022-12-07T00:18:53.374Z,6.78
2022-12-07T00:21:25.846Z,6.99
2022-12-07T00:23:54.284Z,7.03
2022-12-07T00:26:27.270Z,7.00
2022-12-07T00:28:59.259Z,7.04
2022-12-07T00:31:29.408Z,6.88
2022-12-07T00:33:56.842Z,7.00
2022-12-07T00:36:27.229Z,6.86
2022-12-07T00:38:56.416Z,6.77
2022-12-07T00:41:25.806Z,6.71
2022-12-07T00:43:53.230Z,7.08
2022-12-07T00:46:21.706Z,6.72
2022-12-07T00:48:49.817Z,6.97
2022-12-07T00:51:18.794Z,6.75
2022-12-07T00:53:46.672Z,7.00
2022-12-07T00:56:21.703Z,7.06
2022-12-07T00:59:01.134Z,7.08
2022-12-07T01:01:31.921Z,6.84
2022-12-07T01:04:02.113Z,6.75
2022-12-07T01:06:29.738Z,7.01
2022-12-07T01:08:57.649Z,7.05
2022-12-07T01:11:27.224Z,6.61
2022-12-07T01:13:54.780Z,7.12
2022-12-07T01:16:23.570Z,6.73
2022-12-07T01:18:52.878Z,7.09
2022-12-07T01:21:25.478Z,7.02
2022-12-07T01:23:53.287Z,7.06
2022-12-07T01:26:23.745Z,7.09
2022-12-07T01:28:50.818Z,6.94
2022-12-07T01:31:21.029Z,7.06
2022-12-07T01:33:51.211Z,7.04
2022-12-07T01:36:19.581Z,6.87
2022-12-07T01:38:48.522Z,6.99
2022-12-07T01:41:16.174Z,6.98
2022-12-07T01:44:22.938Z,7.08
2022-12-07T01:46:58.866Z,6.94
2022-12-07T01:49:34.949Z,7.07
2022-12-07T01:52:11.419Z,7.08
2022-12-07T01:54:38.625Z,6.92
2022-12-07T01:57:07.833Z,7.07
2022-12-07T01:59:35.358Z,7.09
2022-12-07T02:02:05.792Z,6.98
2022-12-07T02:04:32.986Z,7.06
2022-12-07T02:07:00.388Z,7.07
2022-12-07T02:09:27.399Z,7.07
2022-12-07T02:11:56.113Z,6.87
2022-12-07T02:14:23.377Z,7.02
2022-12-07T02:17:02.358Z,7.08
2022-12-07T02:20:11.718Z,7.09
2022-12-07T02:22:53.984Z,7.08
2022-12-07T02:26:02.973Z,6.94
2022-12-07T02:28:36.173Z,7.10
2022-12-07T02:31:12.018Z,7.07
2022-12-07T02:33:47.138Z,6.99
2022-12-07T02:36:24.433Z,6.81
2022-12-07T02:38:59.145Z,7.05
2022-12-07T02:41:37.049Z,7.05
2022-12-07T02:44:17.957Z,6.97
2022-12-07T02:46:52.169Z,6.24
2022-12-07T02:49:20.539Z,6.97
2022-12-07T02:51:47.797Z,6.73
2022-12-07T02:54:20.626Z,6.93
2022-12-07T02:57:01.923Z,6.85
2022-12-07T02:59:58.610Z,6.80
2022-12-07T03:02:48.866Z,6.70
2022-12-07T03:05:33.157Z,6.80
2022-12-07T03:08:06.175Z,6.76
2022-12-07T03:10:52.217Z,6.76
2022-12-07T03:13:22.166Z,6.73
2022-12-07T03:15:58.339Z,6.69
2022-12-07T03:18:28.896Z,6.45
2022-12-07T03:21:02.749Z,6.63
2022-12-07T03:23:33.122Z,6.31
2022-12-07T03:26:02.325Z,6.58
2022-12-07T03:28:35.045Z,6.41
2022-12-07T03:31:19.298Z,6.55
2022-12-07T03:34:14.976Z,6.47
2022-12-07T03:36:50.732Z,6.42
2022-12-07T03:39:37.675Z,6.45
2022-12-07T03:42:08.400Z,6.04
2022-12-07T03:44:37.269Z,6.39
2022-12-07T03:47:13.397Z,6.47
2022-12-07T03:49:53.043Z,6.46
2022-12-07T03:53:03.117Z,6.04
2022-12-07T03:55:38.292Z,5.86
2022-12-07T03:58:10.470Z,6.37
2022-12-07T04:00:37.698Z,6.42
2022-12-07T04:03:05.392Z,6.13
2022-12-07T04:05:33.780Z,6.04
2022-12-07T04:08:00.811Z,6.23
2022-12-07T04:10:28.082Z,6.39
2022-12-07T04:12:55.583Z,5.50
2022-12-07T04:15:22.706Z,6.38
2022-12-07T04:17:49.700Z,6.40
2022-12-07T04:20:16.679Z,6.42
2022-12-07T04:22:43.751Z,6.34
2022-12-07T04:25:10.716Z,6.28
2022-12-07T04:27:37.858Z,5.75
2022-12-07T04:30:06.007Z,6.42
2022-12-07T04:32:33.217Z,6.41
2022-12-07T04:35:00.163Z,6.39
2022-12-07T04:37:27.381Z,6.43
2022-12-07T04:39:54.721Z,6.38
2022-12-07T04:42:21.820Z,6.33
2022-12-07T04:44:48.850Z,6.37
2022-12-07T04:47:15.976Z,6.35
2022-12-07T04:49:43.016Z,6.29
2022-12-07T04:52:09.979Z,6.27
2022-12-07T04:54:37.034Z,6.28
2022-12-07T04:57:04.063Z,6.30
2022-12-07T04:59:31.113Z,6.28
2022-12-07T05:01:58.325Z,6.24
2022-12-07T05:04:25.381Z,6.17
2022-12-07T05:06:52.353Z,6.08
2022-12-07T05:09:19.846Z,6.14
2022-12-07T05:11:46.837Z,6.10
2022-12-07T05:14:21.273Z,6.08
2022-12-07T05:16:51.067Z,5.94
2022-12-07T05:19:19.806Z,6.01
2022-12-07T05:21:47.711Z,6.10
2022-12-07T05:24:16.676Z,6.07
2022-12-07T05:26:44.202Z,5.68
2022-12-07T05:29:14.397Z,6.05
2022-12-07T05:31:41.719Z,5.81
2022-12-07T05:34:09.144Z,6.03
2022-12-07T05:36:36.471Z,5.94
2022-12-07T05:39:03.723Z,6.03
2022-12-07T05:41:49.432Z,5.76
2022-12-07T05:44:16.454Z,6.02
2022-12-07T05:46:43.641Z,5.86
2022-12-07T05:49:10.845Z,5.58
2022-12-07T05:51:38.190Z,5.93
2022-12-07T05:54:05.360Z,5.69
2022-12-07T05:56:32.368Z,5.65
2022-12-07T05:59:18.205Z,5.87
2022-12-07T06:01:45.601Z,5.74
2022-12-07T06:04:12.652Z,5.72
2022-12-07T06:06:39.971Z,5.86
2022-12-07T06:09:07.112Z,5.82
2022-12-07T06:11:52.712Z,5.48
2022-12-07T06:14:20.201Z,5.69
2022-12-07T06:16:47.848Z,5.95
2022-12-07T06:19:14.896Z,5.93
2022-12-07T06:21:42.290Z,5.72
2022-12-07T06:24:12.674Z,5.46
2022-12-07T06:26:40.797Z,5.95
2022-12-07T06:29:08.168Z,6.02
2022-12-07T06:31:36.649Z,6.09
2022-12-07T06:34:06.811Z,6.00
2022-12-07T06:36:34.339Z,6.16
2022-12-07T06:39:02.201Z,6.19
2022-12-07T06:41:29.295Z,6.22
2022-12-07T06:43:56.545Z,5.96
2022-12-07T06:46:25.324Z,6.22
2022-12-07T06:48:52.532Z,6.05
2022-12-07T06:51:20.161Z,6.25
2022-12-07T06:53:47.043Z,6.30
2022-12-07T06:56:14.104Z,6.23
2022-12-07T06:58:41.877Z,6.36
2022-12-07T07:01:17.003Z,6.39
2022-12-07T07:03:45.816Z,6.20
2022-12-07T07:06:14.225Z,6.42
2022-12-07T07:08:42.121Z,6.38
2022-12-07T07:11:10.414Z,6.48
2022-12-07T07:13:37.832Z,6.50
2022-12-07T07:16:05.219Z,6.56
2022-12-07T07:18:32.471Z,6.53
2022-12-07T07:20:59.731Z,6.63
2022-12-07T07:23:26.880Z,6.59
2022-12-07T07:25:54.331Z,6.64
2022-12-07T07:28:21.559Z,6.63
2022-12-07T07:30:48.625Z,6.48
2022-12-07T07:33:16.168Z,6.75
2022-12-07T07:35:43.151Z,6.73
2022-12-07T07:38:10.038Z,6.87
2022-12-07T07:40:37.783Z,6.93
2022-12-07T07:43:04.751Z,6.96
2022-12-07T07:45:31.959Z,7.00
2022-12-07T07:47:59.088Z,7.03
2022-12-07T07:50:26.485Z,6.98
2022-12-07T07:52:54.046Z,6.95
2022-12-07T07:55:21.072Z,6.99
2022-12-07T07:57:54.182Z,7.01
2022-12-07T08:00:22.114Z,7.01
2022-12-07T08:02:49.280Z,7.03
2022-12-07T08:05:16.719Z,7.12
2022-12-07T08:07:44.572Z,7.05
2022-12-07T08:10:14.094Z,6.74
2022-12-07T08:13:02.618Z,7.12
2022-12-07T08:15:31.932Z,7.31
2022-12-07T08:17:59.360Z,7.31
2022-12-07T08:20:26.873Z,7.26
2022-12-07T08:22:54.194Z,7.16
2022-12-07T08:25:23.192Z,7.33
2022-12-07T08:27:50.399Z,7.30
2022-12-07T08:30:17.367Z,7.23
2022-12-07T08:32:48.491Z,7.37
2022-12-07T08:35:16.604Z,7.33
2022-12-07T08:37:43.949Z,7.17
2022-12-07T08:40:16.396Z,7.17
2022-12-07T08:42:45.755Z,7.29
2022-12-07T08:45:14.730Z,7.25
2022-12-07T08:47:50.899Z,7.38
2022-12-07T08:50:18.528Z,7.40
2022-12-07T08:52:48.648Z,7.53
2022-12-07T08:55:15.673Z,7.55
2022-12-07T08:57:43.795Z,7.23
2022-12-07T09:00:11.755Z,7.66
2022-12-07T09:02:38.886Z,7.62
2022-12-07T09:05:07.758Z,7.38
2022-12-07T09:07:37.344Z,7.40
2022-12-07T09:10:05.799Z,7.66
2022-12-07T09:12:32.807Z,7.66
2022-12-07T09:15:01.615Z,7.83
2022-12-07T09:17:34.221Z,7.80
2022-12-07T09:20:02.673Z,7.85
2022-12-07T09:22:31.474Z,7.90
2022-12-07T09:24:59.452Z,8.04
2022-12-07T09:27:27.139Z,8.07
2022-12-07T09:29:54.204Z,8.18
2022-12-07T09:32:22.449Z,8.24
2022-12-07T09:34:49.861Z,8.25
2022-12-07T09:37:17.283Z,8.25
2022-12-07T09:39:49.664Z,8.27
2022-12-07T09:42:49.273Z,8.41
2022-12-07T09:45:36.722Z,8.45
2022-12-07T09:48:05.271Z,8.46
2022-12-07T09:50:32.195Z,8.51
2022-12-07T09:53:15.116Z,8.67
2022-12-07T09:55:44.262Z,8.64
2022-12-07T09:58:27.448Z,8.82
2022-12-07T10:01:02.350Z,8.92
2022-12-07T10:03:30.215Z,8.99
2022-12-07T10:05:58.571Z,9.14
2022-12-07T10:08:26.575Z,9.24
2022-12-07T10:11:00.161Z,9.35
2022-12-07T10:13:50.139Z,9.49
2022-12-07T10:16:42.724Z,9.48
2022-12-07T10:19:28.954Z,9.36
2022-12-07T10:22:05.964Z,9.58
2022-12-07T10:24:33.511Z,9.77
2022-12-07T10:27:00.548Z,9.91
2022-12-07T10:29:37.856Z,9.99
2022-12-07T10:32:26.364Z,10.01
2022-12-07T10:35:21.111Z,10.12
2022-12-07T10:37:48.247Z,10.00
2022-12-07T10:40:34.613Z,10.04
2022-12-07T10:43:06.540Z,9.99
2022-12-07T10:45:42.650Z,10.08
2022-12-07T10:48:33.763Z,10.12
2022-12-07T10:51:21.713Z,10.12
2022-12-07T10:54:03.179Z,10.21
2022-12-07T10:56:30.276Z,10.22
2022-12-07T10:59:03.303Z,10.27
2022-12-07T11:01:51.408Z,10.32
2022-12-07T11:04:37.076Z,10.37
2022-12-07T11:07:38.476Z,10.42
2022-12-07T11:10:15.097Z,10.43
2022-12-07T11:13:16.150Z,10.47
2022-12-07T11:15:46.439Z,10.43
2022-12-07T11:18:34.653Z,10.41
2022-12-07T11:21:13.864Z,10.39
2022-12-07T11:23:52.888Z,10.40
2022-12-07T11:26:57.958Z,10.35
2022-12-07T11:29:58.269Z,10.25
2022-12-07T11:32:34.464Z,10.26
2022-12-07T11:35:19.702Z,10.25
2022-12-07T11:37:48.281Z,10.26
2022-12-07T11:40:23.776Z,10.22
2022-12-07T11:42:58.617Z,10.04
2022-12-07T11:45:32.022Z,10.09
2022-12-07T11:48:03.141Z,10.20
2022-12-07T11:50:46.057Z,9.65
2022-12-07T11:53:25.120Z,10.24
2022-12-07T11:56:01.346Z,10.26
2022-12-07T11:58:34.312Z,10.23
2022-12-07T12:01:32.213Z,10.27
2022-12-07T12:04:05.251Z,10.32
2022-12-07T12:06:32.617Z,10.34
2022-12-07T12:15:24.753Z,10.35
2022-12-07T12:18:15.181Z,10.26
2022-12-07T12:21:03.752Z,10.13
2022-12-07T12:23:49.538Z,10.34
2022-12-07T12:26:21.177Z,10.32
2022-12-07T12:29:00.337Z,10.40
2022-12-07T12:31:40.583Z,10.34
2022-12-07T12:34:31.401Z,10.47
2022-12-07T12:36:59.526Z,10.46
2022-12-07T12:39:26.712Z,10.44
2022-12-07T12:41:56.649Z,10.34
2022-12-07T12:44:23.753Z,10.73
2022-12-07T12:47:00.639Z,10.77
2022-12-07T12:49:27.782Z,10.81
2022-12-07T12:51:56.899Z,10.81
2022-12-07T12:54:36.979Z,10.84
2022-12-07T12:57:27.510Z,10.82
2022-12-07T12:59:54.309Z,10.80
2022-12-07T13:02:36.279Z,10.77
2022-12-07T13:05:07.250Z,10.81
2022-12-07T13:07:52.825Z,10.86
2022-12-07T13:10:32.220Z,10.91
2022-12-07T13:13:03.360Z,10.87
2022-12-07T13:15:33.510Z,10.88
2022-12-07T13:18:03.557Z,10.83
2022-12-07T13:20:50.720Z,10.86
2022-12-07T13:23:44.212Z,10.88
2022-12-07T13:26:42.287Z,10.94
2022-12-07T13:29:21.298Z,10.96
2022-12-07T13:31:51.621Z,10.91
2022-12-07T13:34:36.794Z,11.01
2022-12-07T13:37:11.533Z,11.04
2022-12-07T13:39:56.402Z,11.00
2022-12-07T13:42:27.616Z,11.13
2022-12-07T13:44:55.808Z,10.93
2022-12-07T13:47:45.795Z,11.15
2022-12-07T13:50:28.772Z,11.12
2022-12-07T13:52:58.059Z,11.15
2022-12-07T13:55:25.582Z,11.20
2022-12-07T13:57:56.728Z,11.16
2022-12-07T14:00:27.040Z,11.23
2022-12-07T14:03:00.744Z,11.31
2022-12-07T14:05:30.550Z,11.28
2022-12-07T14:07:59.029Z,11.28
2022-12-07T14:10:32.438Z,11.21
2022-12-07T14:13:01.115Z,11.26
2022-12-07T14:15:37.499Z,11.22
2022-12-07T14:18:05.672Z,11.21
2022-12-07T14:20:37.735Z,11.25
2022-12-07T14:23:12.131Z,11.25
2022-12-07T14:25:51.581Z,11.23
2022-12-07T14:28:33.887Z,11.23
2022-12-07T14:31:02.287Z,11.22
2022-12-07T14:33:29.819Z,11.22
2022-12-07T14:35:59.299Z,11.21
2022-12-07T14:38:27.384Z,11.16
2022-12-07T14:41:16.236Z,11.12
2022-12-07T14:44:00.184Z,11.01
2022-12-07T14:46:30.513Z,10.92
2022-12-07T14:54:34.337Z,10.59
2022-12-07T14:57:01.925Z,10.60
2022-12-07T14:59:28.895Z,10.56
2022-12-07T15:01:55.887Z,10.50
2022-12-07T15:04:23.031Z,10.22
2022-12-07T15:07:01.811Z,10.33
2022-12-07T15:09:29.177Z,10.11
2022-12-07T15:11:56.289Z,10.12
2022-12-07T15:14:23.422Z,10.03
2022-12-07T15:17:08.595Z,9.99
2022-12-07T15:19:36.961Z,9.85
2022-12-07T15:22:04.510Z,9.83
2022-12-07T15:24:31.586Z,9.67
2022-12-07T15:26:58.528Z,9.68
2022-12-07T15:29:25.915Z,9.56
2022-12-07T15:31:56.959Z,9.45
2022-12-07T15:34:37.809Z,9.38
2022-12-07T15:37:07.391Z,9.37
2022-12-07T15:39:34.714Z,9.27
2022-12-07T15:42:01.902Z,9.03
2022-12-07T15:44:47.424Z,9.15
2022-12-07T15:47:14.515Z,9.09
2022-12-07T15:49:41.757Z,8.84
2022-12-07T15:52:08.872Z,8.97
2022-12-07T15:54:36.057Z,8.83
2022-12-07T15:57:03.136Z,8.88
2022-12-07T15:59:30.355Z,8.87
2022-12-07T16:01:58.277Z,8.85
2022-12-07T16:04:26.280Z,8.69
2022-12-07T16:06:54.159Z,8.72
2022-12-07T16:09:21.893Z,8.70
2022-12-07T16:11:49.096Z,8.52
2022-12-07T16:14:16.160Z,8.53
2022-12-07T16:16:43.216Z,8.48
2022-12-07T16:19:10.717Z,8.44
2022-12-07T16:21:37.789Z,8.44
2022-12-07T16:24:06.294Z,8.27
2022-12-07T16:26:33.875Z,8.44
2022-12-07T16:29:00.981Z,8.12
2022-12-07T16:31:29.105Z,8.33
2022-12-07T16:33:58.552Z,8.34
2022-12-07T16:39:14.339Z,7.89
2022-12-07T16:41:41.418Z,8.10
2022-12-07T16:44:14.604Z,7.96
2022-12-07T16:46:42.200Z,8.11
2022-12-07T16:49:14.536Z,7.98
2022-12-07T16:51:44.127Z,8.04
2022-12-07T16:54:12.115Z,8.05
2022-12-07T16:56:39.457Z,7.99
2022-12-07T16:59:06.478Z,7.95
2022-12-07T17:01:35.370Z,7.65
2022-12-07T17:04:03.751Z,7.56
2022-12-07T17:06:32.122Z,7.83
2022-12-07T17:08:59.695Z,7.81
2022-12-07T17:11:45.810Z,7.76
2022-12-07T17:14:31.820Z,7.72
2022-12-07T17:16:59.719Z,7.69
2022-12-07T17:19:26.938Z,7.66
2022-12-07T17:21:54.041Z,7.54
2022-12-07T17:24:21.682Z,7.60
2022-12-07T17:26:48.899Z,7.58
2022-12-07T17:29:18.387Z,7.60
2022-12-07T17:31:51.416Z,7.45
2022-12-07T17:34:19.374Z,7.42
2022-12-07T17:36:46.556Z,7.21
2022-12-07T17:39:17.532Z,7.45
2022-12-07T17:42:03.127Z,7.38
2022-12-07T17:44:30.304Z,7.31
2022-12-07T17:47:02.665Z,7.31
2022-12-07T17:49:30.498Z,7.25
2022-12-07T17:52:16.763Z,7.16
2022-12-07T17:54:44.245Z,7.19
2022-12-07T17:57:11.549Z,7.21
2022-12-07T17:59:38.573Z,7.13
2022-12-07T18:02:05.930Z,7.04
2022-12-07T18:04:33.621Z,6.77
2022-12-07T18:07:00.641Z,7.09
2022-12-07T18:09:27.598Z,7.06
2022-12-07T18:11:54.474Z,6.99
2022-12-07T18:14:21.388Z,7.02
2022-12-07T18:16:50.222Z,6.93
2022-12-07T18:19:17.583Z,6.89
2022-12-07T18:21:45.768Z,6.93
2022-12-07T18:24:15.789Z,6.95
2022-12-07T18:26:44.529Z,6.82
2022-12-07T18:29:15.565Z,6.81
2022-12-07T18:31:42.973Z,6.80
2022-12-07T18:34:12.979Z,6.68
2022-12-07T18:36:46.233Z,6.64
2022-12-07T18:39:14.943Z,6.67
2022-12-07T18:41:42.781Z,6.57
2022-12-07T18:44:09.856Z,6.51
2022-12-07T18:46:36.999Z,6.49
2022-12-07T18:49:05.191Z,6.53
2022-12-07T18:51:32.806Z,6.47
2022-12-07T18:54:01.627Z,6.52
2022-12-07T18:56:29.438Z,6.48
2022-12-07T18:59:17.485Z,6.43
2022-12-07T19:01:47.871Z,6.49
2022-12-07T19:04:15.686Z,6.43
2022-12-07T19:06:44.772Z,6.37
2022-12-07T19:09:13.482Z,6.23
2022-12-07T19:11:49.763Z,6.35
2022-12-07T19:14:28.819Z,6.26
2022-12-07T19:16:58.754Z,6.28
2022-12-07T19:19:34.256Z,6.31
2022-12-07T19:22:02.207Z,6.31
2022-12-07T19:24:29.878Z,6.30
2022-12-07T19:26:57.334Z,6.31
2022-12-07T19:29:24.386Z,6.27
2022-12-07T19:31:51.352Z,6.23
2022-12-07T19:34:18.681Z,6.30
2022-12-07T19:36:46.439Z,6.31
2022-12-07T19:39:15.371Z,6.23
2022-12-07T19:41:44.522Z,6.28
2022-12-07T19:44:17.884Z,6.29
2022-12-07T19:46:47.354Z,6.28
2022-12-07T19:49:17.576Z,6.28
2022-12-07T19:51:46.617Z,6.13
2022-12-07T19:54:15.391Z,6.21
2022-12-07T19:56:43.747Z,6.07
2022-12-07T19:59:11.915Z,6.18
2022-12-07T20:01:40.998Z,6.24
2022-12-07T20:04:16.728Z,6.22
2022-12-07T20:06:44.368Z,6.13
2022-12-07T20:09:11.895Z,6.16
2022-12-07T20:11:58.028Z,6.02
2022-12-07T20:14:25.556Z,5.89
2022-12-07T20:16:52.797Z,6.09
2022-12-07T20:19:20.208Z,6.01
2022-12-07T20:21:47.568Z,6.03
2022-12-07T20:24:20.177Z,5.99
2022-12-07T20:26:49.871Z,6.01
2022-12-07T20:29:20.117Z,5.94
2022-12-07T20:31:49.348Z,5.97
2022-12-07T20:34:16.920Z,5.72
2022-12-07T20:36:44.287Z,5.84
2022-12-07T20:39:11.875Z,5.97
2022-12-07T20:41:58.589Z,5.97
2022-12-07T20:44:26.245Z,5.91
2022-12-07T20:46:55.085Z,5.96
2022-12-07T20:49:22.449Z,5.92
2022-12-07T20:51:49.488Z,5.93
2022-12-07T20:54:16.434Z,5.99
2022-12-07T20:56:43.730Z,5.87
2022-12-07T20:59:14.169Z,5.94
2022-12-07T21:01:42.217Z,5.85
2022-12-07T21:04:12.076Z,5.85
2022-12-07T21:06:39.424Z,5.87
2022-12-07T21:09:06.746Z,5.85
2022-12-07T21:11:33.882Z,5.82
2022-12-07T21:14:00.811Z,5.81
2022-12-07T21:16:30.482Z,5.84
2022-12-07T21:19:00.105Z,5.75
2022-12-07T21:21:27.149Z,5.81
2022-12-07T21:24:01.502Z,5.78
2022-12-07T21:26:30.205Z,5.78
2022-12-07T21:28:57.543Z,5.38
2022-12-07T21:31:26.888Z,5.67
2022-12-07T21:33:54.072Z,5.67
2022-12-07T21:36:23.518Z,5.53
2022-12-07T21:38:51.412Z,5.55
2022-12-07T21:41:20.228Z,5.55
2022-12-07T21:43:47.909Z,5.50
2022-12-07T21:46:16.496Z,5.45
2022-12-07T21:48:49.384Z,5.52
2022-12-07T21:51:17.720Z,5.40
2022-12-07T21:53:44.624Z,5.38
2022-12-07T21:56:19.709Z,5.34
2022-12-07T21:58:47.605Z,5.40
2022-12-07T22:01:26.211Z,5.40
2022-12-07T22:03:53.582Z,5.40
2022-12-07T22:06:25.425Z,5.30
2022-12-07T22:08:53.667Z,5.26
2022-12-07T22:11:20.815Z,5.08
2022-12-07T22:14:10.220Z,5.31
2022-12-07T22:16:38.865Z,5.29
2022-12-07T22:19:07.220Z,5.34
2022-12-07T22:21:35.036Z,5.34
2022-12-07T22:24:02.523Z,5.27
2022-12-07T22:26:29.636Z,5.31
2022-12-07T22:28:56.566Z,5.30
2022-12-07T22:31:23.968Z,5.28
2022-12-07T22:33:51.883Z,5.29
2022-12-07T22:36:19.676Z,5.27
2022-12-07T22:38:47.523Z,5.24
2022-12-07T22:41:41.552Z,5.27
2022-12-07T22:44:08.799Z,5.24
2022-12-07T22:46:36.277Z,5.19
2022-12-07T22:49:04.334Z,5.28
2022-12-07T22:51:33.553Z,5.28
2022-12-07T22:54:02.640Z,5.20
2022-12-07T22:56:32.523Z,5.25
2022-12-07T22:59:00.972Z,5.24
2022-12-07T23:01:28.250Z,5.19
2022-12-07T23:03:56.400Z,5.23
2022-12-07T23:06:28.757Z,5.04
2022-12-07T23:09:01.008Z,5.12
2022-12-07T23:11:49.627Z,5.20
2022-12-07T23:14:23.192Z,5.18
2022-12-07T23:16:50.253Z,5.03
2022-12-07T23:19:17.125Z,4.82
2022-12-07T23:21:44.813Z,5.07
2022-12-07T23:24:13.667Z,5.06
2022-12-07T23:26:42.643Z,5.07
2022-12-07T23:29:15.746Z,4.93
2022-12-07T23:31:44.542Z,5.02
2022-12-07T23:34:11.490Z,4.95
2022-12-07T23:36:39.167Z,4.91
2022-12-07T23:39:06.353Z,4.78
2022-12-07T23:41:33.536Z,4.82
2022-12-07T23:44:01.767Z,4.86
2022-12-07T23:46:31.276Z,4.83
2022-12-07T23:49:00.120Z,3.73
2022-12-07T23:51:27.110Z,4.78
2022-12-07T23:53:55.241Z,4.81
2022-12-07T23:56:24.888Z,4.81
2022-12-07T23:58:52.938Z,4.80
